Time;durP1;ratioP1;P1;durP2;ratioP2;P2;SDS_P1;SDS_P2;PMS_P1;PMS_P2;Temp;Humidity;BMP_temperature;BMP_pressure;BME280_temperature;BME280_humidity;BME280_pressure;Samples;Min_cycle;Max_cycle;Signal;HPM_P1;HPM_P2
2021/10/18 00:01:59;;;;;;;14.00;10.07;;;;;;;15.61;65.83;101671.09;5015085;28;102053;-85
2021/10/18 00:04:27;;;;;;;11.38;9.80;;;;;;;15.62;65.83;101678.22;5010789;27;102240;-86
2021/10/18 00:06:53;;;;;;;11.60;9.53;;;;;;;15.61;66.08;101676.56;5005968;28;102810;-79
2021/10/18 00:09:22;;;;;;;11.50;10.15;;;;;;;15.61;66.15;101673.81;5004266;28;103932;-79
2021/10/18 00:11:57;;;;;;;11.93;9.93;;;;;;;15.61;66.24;101671.09;5011990;28;102175;-79
2021/10/18 00:14:23;;;;;;;11.68;9.82;;;;;;;15.61;66.32;101671.09;5004504;28;102517;-79
2021/10/18 00:16:50;;;;;;;11.63;9.80;;;;;;;15.62;66.03;101671.91;5005620;28;102310;-79
2021/10/18 00:19:17;;;;;;;11.50;9.93;;;;;;;15.62;66.05;101675.47;5013080;28;102655;-81
2021/10/18 00:21:51;;;;;;;12.23;9.57;;;;;;;15.61;65.86;101668.34;5013964;28;102385;-84
2021/10/18 00:24:19;;;;;;;12.20;9.63;;;;;;;15.62;66.01;101672.72;5013170;28;102517;-86
2021/10/18 00:26:46;;;;;;;11.85;9.73;;;;;;;15.63;66.11;101673.53;5030586;27;102307;-87
2021/10/18 00:29:16;;;;;;;11.13;9.52;;;;;;;15.63;66.01;101668.88;5011223;28;103927;-87
2021/10/18 00:31:42;;;;;;;11.27;9.63;;;;;;;15.62;66.14;101669.97;5028860;28;102261;-86
2021/10/18 00:34:10;;;;;;;10.32;9.10;;;;;;;15.63;65.94;101670.78;5011960;28;102558;-87
2021/10/18 00:36:36;;;;;;;12.25;9.75;;;;;;;15.62;66.16;101667.22;5005678;28;102719;-86
2021/10/18 00:39:04;;;;;;;10.90;9.73;;;;;;;15.63;66.31;101665.31;5012341;27;103847;-87
2021/10/18 00:41:31;;;;;;;12.17;9.67;;;;;;;15.62;65.99;101661.75;5015098;27;102091;-79
2021/10/18 00:43:58;;;;;;;10.38;9.27;;;;;;;15.62;66.37;101672.72;5013830;28;102783;-87
2021/10/18 00:46:24;;;;;;;9.65;8.55;;;;;;;15.62;66.04;101667.22;5014240;28;102319;-87
2021/10/18 00:52:34;;;;;;;11.23;8.57;;;;;;;15.63;66.38;101674.34;5011654;28;103029;-87
2021/10/18 00:55:03;;;;;;;11.50;8.90;;;;;;;15.63;66.02;101679.84;5010542;28;102335;-87
2021/10/18 00:57:30;;;;;;;11.35;9.25;;;;;;;15.63;65.86;101673.53;5015647;28;102356;-86
2021/10/18 00:59:58;;;;;;;10.88;9.07;;;;;;;15.63;66.47;101674.34;5012345;28;103070;-87
2021/10/18 01:02:25;;;;;;;11.20;9.10;;;;;;;15.62;66.02;101667.22;5012374;28;102331;-86
2021/10/18 01:04:53;;;;;;;11.57;8.88;;;;;;;15.63;66.33;101666.13;5011783;28;102800;-87
2021/10/18 01:07:20;;;;;;;10.10;8.43;;;;;;;15.63;66.00;101663.38;5014945;28;102577;-87
2021/10/18 01:09:48;;;;;;;11.05;8.88;;;;;;;15.64;66.16;101669.69;5010770;28;104053;-87
2021/10/18 01:12:16;;;;;;;12.40;9.32;;;;;;;15.62;66.31;101667.22;5017517;28;102095;-87
2021/10/18 01:14:42;;;;;;;11.75;9.45;;;;;;;15.63;66.49;101674.34;5004233;28;102628;-86
2021/10/18 01:17:11;;;;;;;10.15;8.48;;;;;;;15.63;66.33;101674.34;5015811;28;102285;-84
2021/10/18 01:19:38;;;;;;;10.55;8.77;;;;;;;15.64;65.80;101666.94;5015546;28;102753;-85
2021/10/18 01:22:06;;;;;;;9.95;8.93;;;;;;;15.63;66.11;101668.88;5018691;28;102321;-85
2021/10/18 01:28:14;;;;;;;10.25;9.05;;;;;;;15.63;66.08;101679.84;5014505;28;102736;-85
2021/10/18 01:30:41;;;;;;;9.65;8.32;;;;;;;15.64;66.04;101677.91;5006423;28;103887;-85
2021/10/18 01:33:07;;;;;;;9.55;8.55;;;;;;;15.63;66.14;101677.09;5014477;28;102115;-86
2021/10/18 01:35:34;;;;;;;11.10;8.95;;;;;;;15.63;66.20;101682.59;5017886;28;102183;-85
2021/10/18 01:38:02;;;;;;;11.30;9.05;;;;;;;15.63;66.48;101679.84;5018292;28;102808;-80
2021/10/18 01:40:29;;;;;;;9.63;8.17;;;;;;;15.64;66.11;101677.91;5015046;28;104164;-80
2021/10/18 01:42:55;;;;;;;10.50;8.45;;;;;;;15.63;66.69;101679.84;5016421;28;102449;-80
2021/10/18 01:45:22;;;;;;;10.38;8.45;;;;;;;15.63;66.34;101685.31;5016850;28;102523;-80
2021/10/18 01:47:49;;;;;;;10.63;8.60;;;;;;;15.63;66.12;101685.31;5015926;28;102685;-80
2021/10/18 01:50:17;;;;;;;10.90;8.43;;;;;;;15.64;66.42;101686.13;5012840;28;103740;-80
2021/10/18 01:52:45;;;;;;;10.05;8.52;;;;;;;15.64;66.28;101683.41;5011713;27;102512;-80
2021/10/18 01:55:14;;;;;;;9.95;8.50;;;;;;;15.64;66.22;101691.63;5016524;28;103004;-80
2021/10/18 01:57:41;;;;;;;9.40;8.23;;;;;;;15.64;66.09;101691.63;5016832;28;102344;-81
2021/10/18 02:00:10;;;;;;;9.95;7.90;;;;;;;15.65;66.11;101695.19;5016717;28;102682;-88
2021/10/18 02:02:36;;;;;;;11.27;8.57;;;;;;;15.65;66.44;101689.69;5007190;28;102346;-88
2021/10/18 02:05:03;;;;;;;9.80;8.15;;;;;;;15.65;66.29;101692.44;5028688;27;102802;-87
2021/10/18 02:07:30;;;;;;;9.63;8.35;;;;;;;15.63;66.17;101693.56;5021616;28;102513;-87
2021/10/18 02:09:59;;;;;;;9.48;8.05;;;;;;;15.64;66.50;101697.13;5017595;28;103900;-87
2021/10/18 02:12:27;;;;;;;;;;;;;;;15.64;66.01;101699.84;5021591;28;102075;-87
2021/10/18 02:14:53;;;;;;;9.15;8.23;;;;;;;15.64;66.40;101702.59;5020783;28;102224;-87
2021/10/18 02:17:20;;;;;;;8.70;7.75;;;;;;;15.65;66.04;101703.44;5020403;28;102458;-87
2021/10/18 02:19:46;;;;;;;10.15;8.15;;;;;;;15.63;66.12;101701.78;5017258;28;103096;-79
2021/10/18 02:22:13;;;;;;;9.20;8.07;;;;;;;15.65;66.09;101708.91;5017507;28;102403;-80
2021/10/18 02:24:39;;;;;;;9.18;7.47;;;;;;;15.64;66.33;101702.59;5018095;28;102965;-80
2021/10/18 02:27:06;;;;;;;10.65;8.27;;;;;;;15.65;65.98;101708.91;5021560;28;102548;-79
2021/10/18 02:29:34;;;;;;;9.15;7.72;;;;;;;15.63;66.07;101712.75;5016764;28;103880;-80
2021/10/18 02:32:01;;;;;;;10.43;7.40;;;;;;;15.65;66.58;101714.41;5016621;27;102387;-80
2021/10/18 02:34:27;;;;;;;9.52;7.97;;;;;;;15.65;66.29;101714.41;5014864;28;102216;-80
2021/10/18 02:36:54;;;;;;;9.10;7.60;;;;;;;15.63;66.52;101718.25;5017075;28;102181;-87
2021/10/18 02:39:20;;;;;;;8.32;7.43;;;;;;;15.65;66.03;101714.41;5005940;27;102405;-86
2021/10/18 02:41:47;;;;;;;8.25;7.35;;;;;;;15.65;66.22;101719.88;5012770;28;103399;-86
2021/10/18 02:44:13;;;;;;;8.93;7.50;;;;;;;15.64;66.21;101719.06;5013416;28;103450;-86
2021/10/18 02:46:41;;;;;;;8.57;7.28;;;;;;;15.63;66.59;101712.75;5015551;28;102758;-86
2021/10/18 02:49:08;;;;;;;8.52;7.63;;;;;;;15.63;66.30;101715.50;5015768;28;102699;-87
2021/10/18 02:51:35;;;;;;;8.60;7.65;;;;;;;15.63;66.19;101711.94;5011800;28;102203;-86
2021/10/18 02:54:04;;;;;;;8.75;7.82;;;;;;;15.65;66.65;101714.41;5012352;27;102463;-86
2021/10/18 02:56:31;;;;;;;8.80;7.82;;;;;;;15.63;66.66;101712.75;5012343;28;102260;-87
2021/10/18 02:58:57;;;;;;;8.63;6.95;;;;;;;15.63;66.44;101710.03;5020600;28;103908;-86
2021/10/18 03:01:24;;;;;;;9.35;7.78;;;;;;;15.64;66.35;101719.06;5009086;28;105487;-89
2021/10/18 03:03:52;;;;;;;8.63;7.72;;;;;;;15.64;66.15;101716.31;5013685;28;102199;-89
2021/10/18 03:06:19;;;;;;;8.88;7.40;;;;;;;15.63;66.33;101718.25;5016658;28;102653;-88
2021/10/18 03:08:45;;;;;;;8.80;7.47;;;;;;;15.63;66.70;101715.50;5008486;28;103332;-85
2021/10/18 03:11:13;;;;;;;8.18;7.25;;;;;;;15.64;66.02;101713.59;5011435;28;102059;-87
2021/10/18 03:13:39;;;;;;;8.75;7.47;;;;;;;15.64;66.49;101713.59;5009470;28;105370;-87
2021/10/18 03:16:06;;;;;;;8.00;7.20;;;;;;;15.65;66.35;101719.88;5014810;28;102492;-80
2021/10/18 03:18:33;;;;;;;8.48;7.03;;;;;;;15.65;66.10;101717.16;5007352;28;103725;-81
2021/10/18 03:21:01;;;;;;;7.82;7.00;;;;;;;15.65;66.15;101714.41;5011126;28;102585;-81
2021/10/18 03:23:28;;;;;;;9.20;7.80;;;;;;;15.63;66.22;101715.50;5007436;28;102118;-80
2021/10/18 03:25:55;;;;;;;9.50;7.18;;;;;;;15.63;66.51;101712.75;5010647;28;102270;-81
2021/10/18 03:28:21;;;;;;;8.88;7.20;;;;;;;15.65;66.50;101719.88;5014360;28;102775;-81
2021/10/18 03:30:48;;;;;;;8.40;7.28;;;;;;;15.64;66.16;101727.31;5016084;28;102360;-81
2021/10/18 03:33:15;;;;;;;7.88;6.85;;;;;;;15.66;66.54;101724.31;5014125;28;103318;-81
2021/10/18 03:35:42;;;;;;;8.30;7.07;;;;;;;15.64;66.67;101724.56;5024618;28;104315;-81
2021/10/18 03:38:10;;;;;;;8.48;7.43;;;;;;;15.65;66.19;101725.38;5013038;28;103218;-81
2021/10/18 03:40:37;;;;;;;;;;;;;;;15.63;66.33;101723.75;5016411;28;102346;-82
2021/10/18 03:43:04;;;;;;;8.93;7.18;;;;;;;15.63;66.36;101717.44;5025974;28;102212;-81
2021/10/18 03:45:31;;;;;;;8.23;6.80;;;;;;;15.64;66.53;101724.56;5013507;28;102753;-81
2021/10/18 03:47:57;;;;;;;7.85;6.72;;;;;;;15.64;66.53;101719.06;5015608;28;102672;-81
2021/10/18 03:50:24;;;;;;;7.97;7.18;;;;;;;15.63;66.35;101728.41;5014182;28;102127;-82
2021/10/18 03:52:50;;;;;;;10.40;6.75;;;;;;;15.64;66.53;101727.31;5014190;28;102297;-81
2021/10/18 03:55:18;;;;;;;9.68;7.18;;;;;;;15.64;66.62;101716.31;5015103;28;102198;-81
2021/10/18 03:57:44;;;;;;;10.27;7.35;;;;;;;15.64;66.28;101719.06;5010092;28;102778;-81
2021/10/18 04:00:11;;;;;;;8.45;7.25;;;;;;;15.63;66.29;101729.22;5007161;28;102584;-81
2021/10/18 04:02:38;;;;;;;8.70;7.45;;;;;;;15.63;66.67;101734.72;5028712;28;102551;-81
2021/10/18 04:05:05;;;;;;;8.25;7.18;;;;;;;15.63;66.25;101723.75;5010790;28;102228;-81
2021/10/18 04:07:32;;;;;;;7.78;6.70;;;;;;;15.65;66.35;101719.88;5014957;28;102785;-81
2021/10/18 04:09:59;;;;;;;9.18;7.22;;;;;;;15.63;66.22;101723.75;5015893;28;102250;-81
2021/10/18 04:12:27;;;;;;;8.50;6.97;;;;;;;15.62;66.53;101722.09;5006431;28;102099;-81
2021/10/18 04:14:54;;;;;;;8.75;7.18;;;;;;;15.63;66.45;101729.22;5003321;28;104595;-87
2021/10/18 04:17:21;;;;;;;8.27;7.15;;;;;;;15.62;66.25;101738.56;5009739;28;102747;-84
2021/10/18 04:19:47;;;;;;;7.60;6.65;;;;;;;15.62;66.09;101738.56;5013917;28;102346;-85
2021/10/18 04:22:14;;;;;;;7.60;6.78;;;;;;;15.63;66.72;101734.72;5013097;28;102406;-85
2021/10/18 04:24:40;;;;;;;8.73;6.80;;;;;;;15.63;66.24;101740.19;5013175;28;102827;-85
2021/10/18 04:27:07;;;;;;;8.02;6.32;;;;;;;15.62;66.14;101735.81;5012313;28;102733;-85
2021/10/18 06:27:11;;;;;;;20.85;10.38;;;;;;;15.25;64.06;101842.34;5071863;27;102519;-60
2021/10/18 06:29:39;;;;;;;15.05;10.93;;;;;;;15.26;63.91;101833.84;5055004;27;102881;-59
2021/10/18 06:32:06;;;;;;;19.25;10.60;;;;;;;15.30;63.58;101842.34;5053991;27;104091;-59
2021/10/18 06:34:33;;;;;;;18.95;10.48;;;;;;;15.32;63.05;101846.44;5050098;27;102105;-59
2021/10/18 06:37:00;;;;;;;18.00;10.95;;;;;;;15.35;63.19;101853.31;5044210;27;102274;-59
2021/10/18 06:39:26;;;;;;;15.68;10.00;;;;;;;15.39;63.04;101849.72;5051840;27;103527;-59
2021/10/18 06:41:53;;;;;;;20.42;11.48;;;;;;;15.42;62.72;101848.34;5047922;27;103957;-60
2021/10/18 06:44:21;;;;;;;13.77;11.45;;;;;;;15.46;62.35;101849.44;5053285;27;102100;-59
2021/10/18 06:46:47;;;;;;;17.27;11.77;;;;;;;15.50;62.48;101852.47;5048182;27;102357;-59
2021/10/18 06:52:07;;;;;;;23.00;15.38;;;;;;;15.57;61.45;101856.56;5063464;27;102619;-87
2021/10/18 06:54:39;;;;;;;23.92;15.38;;;;;;;15.50;61.32;101856.00;5054662;27;102277;-86
2021/10/18 06:57:06;;;;;;;22.60;16.77;;;;;;;15.47;60.93;101853.84;5046617;27;104101;-87
2021/10/18 06:59:32;;;;;;;22.48;16.65;;;;;;;15.44;61.02;101859.88;5047554;27;102132;-87
2021/10/18 07:01:59;;;;;;;19.17;14.73;;;;;;;15.41;61.10;101849.47;5052806;27;102454;-87
2021/10/18 07:04:29;;;;;;;19.23;13.18;;;;;;;15.40;61.22;101861.53;5051579;27;103043;-87
2021/10/18 07:06:57;;;;;;;18.15;12.80;;;;;;;15.39;60.86;101854.38;5053849;27;103754;-86
2021/10/18 07:09:27;;;;;;;17.02;12.98;;;;;;;15.36;60.49;101852.19;5054703;27;102556;-87
2021/10/18 07:11:54;;;;;;;12.55;10.32;;;;;;;15.33;61.11;101856.34;5051767;27;102103;-84
2021/10/18 07:14:21;;;;;;;14.80;10.60;;;;;;;15.32;61.12;101860.16;5054237;27;102154;-84
2021/10/18 07:16:47;;;;;;;18.65;11.15;;;;;;;15.32;61.46;101851.09;5046289;27;102876;-83
2021/10/18 07:19:14;;;;;;;12.80;10.05;;;;;;;15.30;60.97;101854.13;5048646;27;102111;-84
2021/10/18 07:22:00;;;;;;;16.08;9.90;;;;;;;15.30;61.29;101850.56;5041597;27;103301;-84
2021/10/18 07:28:21;;;;;;;14.15;7.97;;;;;;;15.28;61.05;101853.56;5041044;27;102708;-84
2021/10/18 07:30:47;;;;;;;13.13;8.40;;;;;;;15.27;60.82;101845.63;5047235;27;102545;-84
2021/10/18 07:33:15;;;;;;;9.73;7.28;;;;;;;15.25;61.27;101848.63;5044133;27;102736;-84
2021/10/18 07:35:44;;;;;;;13.13;7.83;;;;;;;15.25;61.16;101843.16;5048990;27;102255;-85
2021/10/18 07:38:11;;;;;;;13.30;8.53;;;;;;;15.25;61.12;101842.34;5042738;27;102704;-85
2021/10/18 07:40:38;;;;;;;12.63;8.02;;;;;;;15.24;60.78;101840.69;5039602;27;102236;-84
2021/10/18 07:43:06;;;;;;;10.95;7.80;;;;;;;15.24;61.38;101846.19;5047426;27;102128;-84
2021/10/18 07:45:34;;;;;;;12.88;8.05;;;;;;;15.24;60.97;101840.69;5053436;27;102146;-84
2021/10/18 07:48:01;;;;;;;13.63;8.02;;;;;;;15.23;61.54;101839.88;5052498;27;103089;-86
2021/10/18 07:50:28;;;;;;;10.45;8.45;;;;;;;15.24;61.27;101841.50;5037229;27;102384;-84
2021/10/18 07:52:55;;;;;;;17.40;8.65;;;;;;;15.25;61.16;101845.06;5051073;27;102300;-83
2021/10/18 07:55:22;;;;;;;11.63;8.40;;;;;;;15.24;61.15;101846.19;5049928;27;102631;-84
2021/10/18 07:57:50;;;;;;;13.18;8.27;;;;;;;15.23;61.23;101836.31;5044192;27;104089;-84
2021/10/18 08:00:18;;;;;;;13.25;8.50;;;;;;;15.23;61.05;101834.41;5044233;27;103583;-84
2021/10/18 08:02:46;;;;;;;12.73;8.70;;;;;;;15.23;61.25;101839.88;5032499;27;102614;-84
2021/10/18 08:05:16;;;;;;;14.50;9.02;;;;;;;15.25;61.21;101831.38;5036452;27;102495;-84
2021/10/18 08:07:55;;;;;;;11.45;9.00;;;;;;;15.25;61.58;101839.59;5036256;27;103347;-84
2021/10/18 08:10:23;;;;;;;12.77;8.48;;;;;;;15.25;61.40;101836.84;5037935;27;103483;-84
2021/10/18 08:12:50;;;;;;;15.70;9.10;;;;;;;15.24;61.24;101833.28;5030903;27;102319;-84
2021/10/18 08:15:17;;;;;;;10.85;8.13;;;;;;;15.25;61.83;101828.63;5040725;27;102209;-85
2021/10/18 08:17:47;;;;;;;11.77;8.85;;;;;;;15.26;61.33;101833.03;5035249;27;104119;-84
2021/10/18 08:20:14;;;;;;;13.05;9.07;;;;;;;15.26;61.53;101833.03;5025754;27;102365;-84
2021/10/18 08:22:41;;;;;;;11.25;8.15;;;;;;;15.26;61.56;101825.63;5030024;27;102549;-84
2021/10/18 08:25:08;;;;;;;9.55;7.22;;;;;;;15.27;61.57;101826.44;5022422;27;102646;-84
2021/10/18 08:27:36;;;;;;;11.98;8.30;;;;;;;15.28;62.18;101825.34;5024585;27;104075;-84
2021/10/18 08:30:04;;;;;;;11.25;8.57;;;;;;;15.29;62.25;101829.72;5036927;27;102494;-83
2021/10/18 08:32:31;;;;;;;15.80;9.50;;;;;;;15.29;61.33;101821.47;5031771;27;102824;-84
2021/10/18 08:34:59;;;;;;;11.50;8.07;;;;;;;15.28;61.80;101822.59;5036298;27;102270;-84
2021/10/18 08:40:11;;;;;;;14.35;8.77;;;;;;;15.28;62.12;101834.38;5034240;28;102200;-84
2021/10/18 08:42:52;;;;;;;13.38;8.45;;;;;;;15.28;62.26;101834.38;5036194;27;102483;-85
2021/10/18 08:45:18;;;;;;;11.00;7.97;;;;;;;15.30;62.47;101820.41;5031359;27;103724;-79
2021/10/18 08:47:46;;;;;;;11.82;7.90;;;;;;;15.30;62.34;101825.91;5027746;27;103905;-83
2021/10/18 08:50:14;;;;;;;12.95;8.32;;;;;;;15.30;62.56;101817.66;5037832;27;103983;-85
2021/10/18 08:52:41;;;;;;;10.93;8.93;;;;;;;15.30;62.15;101818.47;5026637;27;102541;-83
2021/10/18 08:55:08;;;;;;;10.88;8.27;;;;;;;15.30;62.92;101818.47;5031535;27;103336;-83
2021/10/18 08:57:35;;;;;;;15.38;8.68;;;;;;;15.32;62.57;101820.94;5029051;27;103845;-84
2021/10/18 09:00:04;;;;;;;10.00;8.25;;;;;;;15.31;62.33;101809.16;5039576;27;102190;-84
2021/10/18 09:02:36;;;;;;;9.40;7.90;;;;;;;15.31;62.49;101824.78;5031729;27;102461;-84
2021/10/18 09:05:05;;;;;;;10.50;8.65;;;;;;;15.31;62.33;101824.78;5032990;27;102400;-86
2021/10/18 09:07:37;;;;;;;14.32;9.13;;;;;;;15.31;62.17;101819.28;5029363;27;103493;-84
2021/10/18 09:10:11;;;;;;;9.60;8.18;;;;;;;15.30;62.13;101823.16;5030212;27;102176;-84
2021/10/18 09:12:41;;;;;;;11.63;8.32;;;;;;;15.27;62.04;101818.22;5031006;27;103753;-84
2021/10/18 09:15:20;;;;;;;10.80;7.93;;;;;;;15.27;62.18;101818.22;5023533;27;102319;-84
2021/10/18 09:17:56;;;;;;;11.18;8.82;;;;;;;15.26;62.09;101811.91;5025892;27;104249;-85
2021/10/18 09:20:25;;;;;;;11.02;7.88;;;;;;;15.25;61.98;101802.00;5032066;27;102454;-84
2021/10/18 09:22:54;;;;;;;;;;;;;;;15.25;61.47;101809.44;5035269;27;102730;-79
2021/10/18 09:25:35;;;;;;;9.05;6.95;;;;;;;15.25;61.80;101809.44;5035362;27;102219;-79
2021/10/18 09:28:11;;;;;;;12.23;8.57;;;;;;;15.25;61.99;101809.44;5030527;27;103578;-78
2021/10/18 09:30:40;;;;;;;12.23;8.90;;;;;;;15.26;62.02;101805.59;5041748;27;102437;-78
2021/10/18 09:33:16;;;;;;;13.68;8.85;;;;;;;15.25;61.16;101801.19;5035665;27;102452;-79
2021/10/18 09:35:44;;;;;;;11.57;9.05;;;;;;;15.23;61.89;101792.44;5037077;27;102308;-81
2021/10/18 09:38:12;;;;;;;10.80;7.93;;;;;;;15.24;61.88;101799.56;5030669;27;103913;-81
2021/10/18 09:40:45;;;;;;;11.98;8.50;;;;;;;15.23;62.16;101803.41;5031803;27;103354;-82
2021/10/18 09:43:13;;;;;;;12.98;9.20;;;;;;;15.23;61.90;101803.41;5023303;27;102321;-82
2021/10/18 09:45:56;;;;;;;13.25;9.18;;;;;;;15.21;61.74;101800.94;5035014;27;102549;-83
2021/10/18 11:48:06;;;;;;;9.15;6.95;;;;;;;15.00;62.31;101726.13;5026424;27;102718;-83
2021/10/18 11:50:39;;;;;;;10.10;7.10;;;;;;;15.00;62.27;101733.50;5052278;27;102196;-84
2021/10/18 11:53:11;;;;;;;9.43;7.28;;;;;;;15.00;62.25;101730.75;5050224;27;103993;-83
2021/10/18 11:55:40;;;;;;;8.23;7.00;;;;;;;15.00;62.27;101737.09;5045566;27;102004;-83
2021/10/18 11:58:07;;;;;;;7.60;6.80;;;;;;;15.00;62.37;101736.25;5051478;27;102594;-87
2021/10/18 12:00:41;;;;;;;9.35;7.05;;;;;;;15.00;62.13;101739.84;5046999;27;102315;-86
2021/10/18 12:03:11;;;;;;;8.90;6.97;;;;;;;15.01;62.28;101735.16;5050907;27;102629;-85
2021/10/18 12:05:40;;;;;;;9.50;7.18;;;;;;;15.01;62.23;101729.69;5048763;27;101933;-87
2021/10/18 12:08:07;;;;;;;9.33;7.07;;;;;;;15.00;62.05;101737.09;5050430;27;102744;-87
2021/10/18 12:10:35;;;;;;;9.10;6.00;;;;;;;15.00;62.14;101728.03;5047921;27;102965;-88
2021/10/18 12:13:08;;;;;;;7.22;6.03;;;;;;;15.00;61.90;101739.84;5050090;27;104283;-87
2021/10/18 12:15:38;;;;;;;7.65;6.28;;;;;;;15.00;61.89;101730.75;5047823;27;102053;-86
2021/10/18 12:18:05;;;;;;;10.25;6.95;;;;;;;15.01;61.78;101732.44;5043509;27;102125;-86
2021/10/18 12:20:34;;;;;;;8.43;6.20;;;;;;;15.01;61.87;101733.25;5048037;27;102222;-86
2021/10/18 12:23:04;;;;;;;8.43;7.22;;;;;;;15.00;61.74;101733.50;5046552;27;104209;-86
2021/10/18 12:25:33;;;;;;;9.93;7.03;;;;;;;15.00;61.80;101731.63;5038988;27;102133;-86
2021/10/18 12:28:30;;;;;;;8.43;7.40;;;;;;;14.99;61.49;101727.22;5045118;27;102794;-86
2021/10/18 12:30:59;;;;;;;8.95;7.20;;;;;;;14.99;61.77;101735.44;5049233;27;102625;-87
2021/10/18 12:33:34;;;;;;;13.05;7.40;;;;;;;15.00;61.82;101731.63;5041407;27;102953;-86
2021/10/18 12:36:04;;;;;;;8.55;7.20;;;;;;;14.99;61.91;101729.94;5049575;27;102233;-86
2021/10/18 12:38:40;;;;;;;10.35;7.70;;;;;;;14.99;61.76;101729.94;5047606;27;102325;-86
2021/10/18 12:41:08;;;;;;;11.73;7.30;;;;;;;14.98;61.46;101722.84;5042871;27;102433;-87
2021/10/18 12:43:34;;;;;;;11.00;7.67;;;;;;;14.98;61.56;101717.34;5050980;27;102750;-85
2021/10/18 12:46:14;;;;;;;12.35;8.55;;;;;;;14.98;61.51;101728.31;5048471;27;102068;-87
2021/10/18 12:48:41;;;;;;;10.45;7.63;;;;;;;14.98;61.78;101722.84;5047678;27;102114;-86
2021/10/18 12:51:09;;;;;;;9.50;7.78;;;;;;;14.97;61.48;101729.41;5045927;27;103641;-87
2021/10/18 12:53:36;;;;;;;10.25;7.93;;;;;;;14.99;61.76;101721.72;5048382;27;103958;-86
2021/10/18 12:56:05;;;;;;;8.85;7.30;;;;;;;14.99;61.79;101727.22;5043988;27;102682;-86
2021/10/18 12:58:37;;;;;;;9.10;7.65;;;;;;;15.00;62.14;101720.66;5038256;27;102751;-86
2021/10/18 13:01:13;;;;;;;10.60;8.15;;;;;;;15.01;61.71;101726.94;5030912;27;102443;-86
2021/10/18 13:03:40;;;;;;;8.60;7.32;;;;;;;15.01;61.89;101722.28;5021890;27;102874;-86
2021/10/18 13:06:16;;;;;;;11.45;7.72;;;;;;;15.02;61.78;101718.44;5033706;27;102130;-86
2021/10/18 13:08:45;;;;;;;10.00;7.57;;;;;;;15.03;62.10;101720.06;5033584;28;102471;-86
2021/10/18 13:11:11;;;;;;;8.52;7.63;;;;;;;15.03;61.62;101725.56;5026987;27;102851;-81
2021/10/18 13:13:38;;;;;;;9.50;7.45;;;;;;;15.03;61.60;101731.03;5023722;28;103338;-86
2021/10/18 13:16:05;;;;;;;9.65;7.85;;;;;;;15.04;61.67;101727.22;5029574;28;102159;-86
2021/10/18 13:18:32;;;;;;;9.05;7.60;;;;;;;15.04;61.85;101732.69;5029895;27;102663;-86
2021/10/18 13:21:00;;;;;;;8.43;7.25;;;;;;;15.04;61.74;101732.69;5031895;27;102398;-87
2021/10/18 13:23:30;;;;;;;9.50;7.65;;;;;;;15.05;61.51;101726.09;5029844;27;102848;-86
2021/10/18 13:25:56;;;;;;;;;;;;;;;15.06;61.74;101733.22;5031997;28;102779;-85
2021/10/18 13:28:22;;;;;;;8.35;7.45;;;;;;;15.07;61.72;101737.63;5028927;27;102101;-86
2021/10/18 13:30:48;;;;;;;8.02;7.20;;;;;;;15.07;61.56;101726.66;5037020;27;102367;-87
2021/10/18 13:33:15;;;;;;;7.75;6.95;;;;;;;15.09;61.54;101735.41;5031428;27;102714;-86
2021/10/18 13:35:42;;;;;;;8.65;7.00;;;;;;;15.09;61.30;101729.13;5030466;27;102543;-87
2021/10/18 13:38:09;;;;;;;8.55;7.50;;;;;;;15.10;61.38;101728.84;5034279;27;102462;-87
2021/10/18 13:40:37;;;;;;;8.05;7.25;;;;;;;15.11;61.43;101727.75;5033425;27;102586;-86
2021/10/18 13:43:06;;;;;;;10.60;7.13;;;;;;;15.11;61.92;101721.41;5030016;27;103953;-87
2021/10/18 13:45:33;;;;;;;7.80;7.00;;;;;;;15.12;61.74;101726.66;5033988;28;101999;-86
2021/10/18 13:48:00;;;;;;;9.27;7.47;;;;;;;15.12;61.77;101723.09;5033675;28;102628;-87
2021/10/18 13:50:26;;;;;;;10.05;7.63;;;;;;;15.13;61.62;101731.03;5031872;27;103485;-82
2021/10/18 13:52:54;;;;;;;10.65;7.63;;;;;;;15.14;61.64;101720.88;5031255;27;104015;-87
2021/10/18 13:55:21;;;;;;;7.85;6.80;;;;;;;15.14;61.83;101727.16;5034779;27;102059;-87
2021/10/18 13:57:49;;;;;;;9.07;8.18;;;;;;;15.16;61.54;101723.34;5027635;28;102829;-87
2021/10/18 14:00:16;;;;;;;9.63;7.85;;;;;;;15.16;61.56;101723.34;5034142;28;102419;-87
2021/10/18 14:02:46;;;;;;;9.43;7.78;;;;;;;15.16;61.54;101721.44;5030064;27;102738;-90
2021/10/18 14:05:12;;;;;;;9.55;7.70;;;;;;;15.18;61.74;101730.19;5030493;27;103301;-87
2021/10/18 14:07:39;;;;;;;8.60;7.53;;;;;;;15.18;61.51;101730.19;5033431;27;102171;-88
2021/10/18 14:10:08;;;;;;;9.52;8.45;;;;;;;15.19;61.33;101731.03;5030678;27;103326;-87
2021/10/18 14:12:36;;;;;;;9.82;7.97;;;;;;;15.20;61.56;101724.44;5026829;28;104271;-87
2021/10/18 14:15:05;;;;;;;8.52;7.63;;;;;;;15.19;61.62;101729.09;5025664;28;102280;-88
2021/10/18 14:17:31;;;;;;;10.60;8.40;;;;;;;15.19;61.92;101718.13;5027417;27;103865;-87
2021/10/18 14:19:57;;;;;;;9.10;8.00;;;;;;;15.21;61.79;101726.88;5031777;27;102577;-86
2021/10/18 14:22:25;;;;;;;11.30;8.25;;;;;;;15.22;61.50;101727.72;5029984;27;104189;-85
2021/10/18 14:24:51;;;;;;;9.77;7.75;;;;;;;15.22;61.78;101722.22;5034607;27;104775;-86
2021/10/18 14:27:18;;;;;;;9.45;8.35;;;;;;;15.23;61.90;101732.13;5036346;28;102461;-84
2021/10/18 14:29:45;;;;;;;8.95;7.88;;;;;;;15.23;61.71;101734.84;5029862;27;102659;-83
2021/10/18 14:32:13;;;;;;;8.85;7.95;;;;;;;15.25;61.79;101724.41;5026843;27;103946;-83
2021/10/18 14:34:39;;;;;;;9.40;8.45;;;;;;;15.25;61.53;101727.97;5028586;28;102576;-82
2021/10/18 14:37:06;;;;;;;9.10;8.13;;;;;;;15.26;61.72;101734.31;5025215;28;102551;-83
2021/10/18 14:39:32;;;;;;;8.63;7.38;;;;;;;15.25;61.73;101733.44;5027785;27;102573;-83
2021/10/18 14:41:59;;;;;;;9.00;7.85;;;;;;;15.26;61.83;101732.38;5036204;28;102464;-84
2021/10/18 14:44:26;;;;;;;9.05;7.75;;;;;;;15.27;61.54;101735.94;5030902;28;102723;-83
2021/10/18 14:46:53;;;;;;;9.43;8.40;;;;;;;15.28;61.82;101737.56;5032092;28;102465;-84
2021/10/18 14:49:21;;;;;;;10.50;8.48;;;;;;;15.28;61.71;101743.88;5030314;27;102829;-86
2021/10/18 14:51:49;;;;;;;10.02;8.13;;;;;;;15.28;61.45;101738.38;5025570;28;104354;-86
2021/10/18 14:54:16;;;;;;;10.43;8.07;;;;;;;15.28;61.98;101748.53;5029054;27;102187;-85
2021/10/18 14:56:43;;;;;;;8.85;7.70;;;;;;;15.30;61.73;101749.09;5032157;27;102097;-88
2021/10/18 14:59:10;;;;;;;8.77;7.85;;;;;;;15.30;61.72;101758.16;5028718;27;102212;-83
2021/10/18 15:01:37;;;;;;;10.30;7.85;;;;;;;15.30;61.90;101752.66;5029695;27;102691;-83
2021/10/18 15:04:05;;;;;;;9.88;8.48;;;;;;;15.32;61.88;101757.84;5027271;27;102209;-83
2021/10/18 15:06:34;;;;;;;8.73;7.83;;;;;;;15.31;61.74;101757.03;5031048;27;103101;-82
2021/10/18 15:09:04;;;;;;;;;;;;;;;15.32;61.84;101763.34;5032391;27;102260;-85
2021/10/18 15:11:32;;;;;;;9.02;7.68;;;;;;;15.32;61.81;101760.59;5023864;28;103864;-84
2021/10/18 15:13:59;;;;;;;10.30;8.07;;;;;;;15.33;61.76;101765.00;5026526;27;102254;-85
2021/10/18 15:16:26;;;;;;;8.57;7.78;;;;;;;15.32;61.87;101772.38;5032346;27;102062;-84
2021/10/18 15:18:52;;;;;;;8.73;7.82;;;;;;;15.33;61.87;101762.25;5032454;28;102882;-84
2021/10/18 15:21:18;;;;;;;8.32;7.53;;;;;;;15.34;61.88;101758.41;5026532;27;103874;-84
2021/10/18 15:23:46;;;;;;;10.80;7.80;;;;;;;15.33;61.84;101768.56;5031101;27;102493;-79
2021/10/18 15:26:13;;;;;;;9.35;8.23;;;;;;;15.35;62.00;101771.00;5028603;28;102406;-81
2021/10/18 15:28:39;;;;;;;8.10;7.30;;;;;;;15.35;61.91;101776.50;5041266;27;102675;-86
2021/10/18 15:31:07;;;;;;;11.07;8.75;;;;;;;15.35;62.17;101776.50;5024559;27;103912;-85
2021/10/18 15:33:34;;;;;;;14.07;9.38;;;;;;;15.35;62.26;101773.75;5022323;28;102266;-85